Time;durP1;ratioP1;P1;durP2;ratioP2;P2;SDS_P1;SDS_P2;PMS_P1;PMS_P2;Temp;Humidity;BMP_temperature;BMP_pressure;BME280_temperature;BME280_humidity;BME280_pressure;Samples;Min_cycle;Max_cycle;Signal;HPM_P1;HPM_P2
2021/07/02 00:00:09;;;;;;;4.13;3.57;;;;;;;15.65;75.12;96862.50;5095804;28;20176;-58
2021/07/02 00:02:35;;;;;;;4.30;3.90;;;;;;;15.80;74.73;96861.78;5105467;28;20188;-59
2021/07/02 00:05:01;;;;;;;4.73;3.93;;;;;;;15.74;75.04;96855.69;5099049;28;20197;-59
2021/07/02 00:07:26;;;;;;;6.30;3.80;;;;;;;15.79;74.89;96862.81;5089751;28;20199;-60
2021/07/02 00:09:52;;;;;;;9.60;3.43;;;;;;;15.75;74.89;96845.91;5094277;28;20195;-59
2021/07/02 00:12:17;;;;;;;4.67;3.90;;;;;;;15.77;74.59;96851.75;5092957;28;20559;-58
2021/07/02 00:14:42;;;;;;;4.00;3.60;;;;;;;15.82;74.68;96856.25;5105377;28;20188;-61
2021/07/02 00:17:08;;;;;;;4.00;3.60;;;;;;;15.85;74.53;96856.50;5093545;28;20205;-58
2021/07/02 00:19:33;;;;;;;5.83;3.57;;;;;;;15.79;74.60;96853.06;5107707;28;20214;-59
2021/07/02 00:21:59;;;;;;;4.07;3.70;;;;;;;15.66;75.53;96842.16;5104592;28;20218;-58
2021/07/02 00:24:24;;;;;;;4.10;3.70;;;;;;;15.76;75.02;96850.94;5100445;28;20661;-58
2021/07/02 00:26:49;;;;;;;5.60;3.70;;;;;;;15.79;74.99;96845.13;5089890;28;20199;-58
2021/07/02 00:29:15;;;;;;;5.00;4.03;;;;;;;15.76;74.81;96839.56;5100310;28;20317;-59
2021/07/02 00:31:40;;;;;;;5.80;3.70;;;;;;;15.77;75.03;96847.22;5106851;28;20184;-59
2021/07/02 00:34:06;;;;;;;4.57;3.70;;;;;;;15.52;75.95;96843.66;5094846;28;20802;-59
2021/07/02 00:36:31;;;;;;;5.07;3.87;;;;;;;15.66;75.75;96842.94;5103132;28;20183;-59
2021/07/02 00:38:56;;;;;;;5.53;3.87;;;;;;;15.47;76.78;96843.59;5100110;28;20220;-59
2021/07/02 00:41:22;;;;;;;4.00;3.60;;;;;;;15.44;76.95;96842.25;5098278;28;20192;-59
2021/07/02 00:43:56;;;;;;;3.63;3.33;;;;;;;15.61;76.29;96832.34;5101387;28;20294;-61
2021/07/02 00:46:23;;;;;;;4.43;4.03;;;;;;;15.62;76.32;96830.50;5097802;28;20199;-59
2021/07/02 00:48:49;;;;;;;4.47;3.83;;;;;;;15.48;76.87;96845.22;5100538;28;20276;-61
2021/07/02 00:51:15;;;;;;;5.87;4.07;;;;;;;15.51;76.87;96834.91;5103811;28;20186;-58
2021/07/02 00:53:41;;;;;;;4.90;3.77;;;;;;;15.43;77.36;96832.78;5096618;28;20185;-59
2021/07/02 00:56:08;;;;;;;6.90;4.30;;;;;;;15.36;77.76;96824.28;5091460;28;20426;-58
2021/07/02 00:58:35;;;;;;;4.90;3.97;;;;;;;15.30;78.14;96827.94;5093704;28;20267;-60
2021/07/02 01:01:01;;;;;;;4.83;4.17;;;;;;;15.22;78.27;96828.41;5098932;28;20214;-58
2021/07/02 01:03:27;;;;;;;4.57;4.00;;;;;;;15.33;77.87;96825.56;5093204;28;20700;-59
2021/07/02 01:05:54;;;;;;;5.07;3.70;;;;;;;15.27;78.05;96823.13;5107226;28;20204;-58
2021/07/02 01:08:19;;;;;;;4.57;3.53;;;;;;;15.40;77.60;96826.13;5100000;28;20657;-58
2021/07/02 01:10:45;;;;;;;5.33;3.90;;;;;;;15.41;77.55;96826.94;5099459;28;20238;-61
2021/07/02 01:13:11;;;;;;;9.47;4.27;;;;;;;15.16;78.49;96824.94;5103565;28;20649;-57
2021/07/02 01:15:36;;;;;;;4.20;3.80;;;;;;;15.19;78.57;96826.28;5095598;28;20200;-59
2021/07/02 01:18:07;;;;;;;4.73;3.77;;;;;;;15.21;78.46;96824.94;5098304;28;20225;-58
2021/07/02 01:20:33;;;;;;;5.77;4.23;;;;;;;15.38;77.57;96822.94;5099188;28;20189;-59
2021/07/02 01:22:58;;;;;;;4.17;3.77;;;;;;;15.35;77.77;96820.84;5097553;28;20193;-59
2021/07/02 01:25:35;;;;;;;4.63;3.70;;;;;;;15.26;78.04;96821.56;5105860;28;20542;-60
2021/07/02 01:28:01;;;;;;;4.00;3.50;;;;;;;15.23;77.98;96828.16;5099597;28;20180;-59
2021/07/02 01:30:27;;;;;;;4.97;4.10;;;;;;;15.10;78.48;96822.53;5093441;28;20252;-59
2021/07/02 01:32:52;;;;;;;4.27;3.83;;;;;;;15.30;77.83;96822.66;5101476;28;20228;-60
2021/07/02 01:35:18;;;;;;;4.77;4.10;;;;;;;15.35;77.29;96831.41;5105530;28;20191;-59
2021/07/02 01:37:44;;;;;;;5.27;4.30;;;;;;;15.21;77.68;96824.94;5089669;28;20289;-59
2021/07/02 01:40:11;;;;;;;6.13;3.90;;;;;;;15.21;77.69;96826.81;5101779;28;20188;-59
2021/07/02 01:42:36;;;;;;;4.90;3.87;;;;;;;15.06;78.18;96834.63;5101987;28;20192;-59
2021/07/02 01:45:07;;;;;;;5.10;3.77;;;;;;;15.23;77.63;96830.78;5099303;28;20184;-59
2021/07/02 01:47:32;;;;;;;4.20;3.80;;;;;;;15.12;78.08;96831.78;5089551;28;20596;-60
2021/07/02 01:49:57;;;;;;;4.23;3.83;;;;;;;15.17;77.71;96826.53;5106471;28;20298;-59
2021/07/02 01:52:23;;;;;;;4.47;3.80;;;;;;;15.10;77.94;96830.44;5097341;28;20267;-60
2021/07/02 01:54:48;;;;;;;5.33;3.87;;;;;;;15.15;78.11;96833.13;5106368;28;20195;-62
2021/07/02 01:57:28;;;;;;;6.67;3.43;;;;;;;15.17;77.64;96826.53;5098359;28;20191;-60
2021/07/02 01:59:54;;;;;;;4.80;3.77;;;;;;;15.15;77.54;96827.84;5107771;28;20305;-60
2021/07/02 02:02:20;;;;;;;4.83;4.17;;;;;;;15.17;77.64;96831.00;5109415;28;20307;-60
2021/07/02 02:04:46;;;;;;;4.20;3.77;;;;;;;15.12;77.59;96829.13;5106584;28;20195;-60
2021/07/02 02:07:11;;;;;;;4.20;3.80;;;;;;;15.25;77.20;96835.81;5101832;28;20523;-60
2021/07/02 02:09:37;;;;;;;4.63;3.90;;;;;;;15.25;76.85;96830.53;5111799;28;20597;-59
2021/07/02 02:12:03;;;;;;;4.53;4.13;;;;;;;15.26;76.63;96829.50;5095427;28;20180;-60
2021/07/02 02:14:28;;;;;;;4.70;4.00;;;;;;;15.11;77.42;96826.75;5101495;28;20277;-60
2021/07/02 02:16:54;;;;;;;4.30;3.60;;;;;;;15.04;77.53;96826.97;5112383;28;20256;-60
2021/07/02 02:19:21;;;;;;;7.97;3.77;;;;;;;15.07;77.17;96817.75;5100716;28;20200;-59
2021/07/02 02:21:46;;;;;;;6.70;4.20;;;;;;;15.01;77.39;96818.75;5111200;28;20188;-62
2021/07/02 02:24:12;;;;;;;4.37;3.93;;;;;;;14.92;77.90;96819.25;5105456;28;20679;-59
2021/07/02 02:26:37;;;;;;;5.97;4.10;;;;;;;15.00;77.47;96825.88;5106397;28;20237;-60
2021/07/02 02:29:03;;;;;;;6.73;4.00;;;;;;;14.94;77.50;96829.53;5105082;28;20201;-60
2021/07/02 02:31:29;;;;;;;4.00;3.60;;;;;;;14.82;78.66;96824.41;5099489;28;20268;-60
2021/07/02 02:33:55;;;;;;;5.03;4.10;;;;;;;14.68;78.73;96823.25;5092957;28;20215;-60
2021/07/02 02:36:20;;;;;;;4.20;3.80;;;;;;;14.54;79.67;96822.88;5109389;28;20220;-58
2021/07/02 02:38:46;;;;;;;5.03;4.53;;;;;;;14.55;79.34;96831.56;5102602;28;20267;-59
2021/07/02 02:41:11;;;;;;;4.97;4.40;;;;;;;14.55;79.56;96824.47;5106898;28;20184;-59
2021/07/02 02:43:37;;;;;;;5.97;4.43;;;;;;;14.51;79.79;96826.00;5098770;28;20720;-60
2021/07/02 02:46:02;;;;;;;6.73;4.47;;;;;;;14.53;79.56;96823.13;5096915;28;20183;-60
2021/07/02 02:48:28;;;;;;;5.27;4.37;;;;;;;14.50;79.96;96826.25;5108467;28;20275;-60
2021/07/02 02:50:53;;;;;;;4.73;4.03;;;;;;;14.56;79.42;96825.25;5112150;28;20180;-59
2021/07/02 02:53:18;;;;;;;4.63;4.13;;;;;;;14.41;80.13;96822.50;5093290;28;20184;-60
2021/07/02 02:55:44;;;;;;;4.97;4.27;;;;;;;14.30;80.38;96826.03;5102423;28;20191;-60
2021/07/02 02:58:09;;;;;;;5.03;4.37;;;;;;;14.29;80.49;96821.81;5113436;28;20176;-60
2021/07/02 03:00:35;;;;;;;5.30;4.27;;;;;;;14.24;80.53;96816.50;5105345;28;20267;-60
2021/07/02 03:03:01;;;;;;;4.93;4.40;;;;;;;14.36;80.33;96825.84;5074628;28;20677;-60
2021/07/02 03:05:26;;;;;;;5.33;4.33;;;;;;;14.33;80.23;96822.91;5096402;28;20705;-60
2021/07/02 03:07:55;;;;;;;5.97;4.80;;;;;;;14.30;80.34;96824.19;5111416;28;20629;-62
2021/07/02 03:10:21;;;;;;;6.40;4.73;;;;;;;14.42;79.73;96824.09;5092415;28;20650;-58
2021/07/02 03:12:47;;;;;;;5.83;4.17;;;;;;;14.37;80.00;96824.84;5094228;28;20260;-61
2021/07/02 03:15:13;;;;;;;5.03;4.47;;;;;;;14.40;79.82;96821.69;5105907;28;20202;-61
2021/07/02 03:17:39;;;;;;;6.23;4.50;;;;;;;14.34;80.01;96837.69;5097589;28;20271;-61
2021/07/02 03:20:09;;;;;;;4.87;4.37;;;;;;;14.38;80.05;96828.25;5110611;28;20693;-60
2021/07/02 03:22:36;;;;;;;6.57;4.43;;;;;;;14.33;80.12;96822.91;5105221;28;20180;-60
2021/07/02 03:25:01;;;;;;;5.70;4.50;;;;;;;14.36;80.01;96827.69;5101665;28;20213;-60
2021/07/02 03:27:27;;;;;;;5.50;4.47;;;;;;;14.42;79.72;96827.53;5108418;28;20217;-60
2021/07/02 03:29:52;;;;;;;6.33;4.53;;;;;;;14.42;79.71;96826.72;5096083;28;20192;-62
2021/07/02 03:32:18;;;;;;;5.60;4.20;;;;;;;14.35;79.79;96824.25;5112993;28;20172;-60
2021/07/02 03:34:46;;;;;;;4.77;4.30;;;;;;;14.25;80.33;96829.44;5105133;28;20672;-59
2021/07/02 03:37:12;;;;;;;7.43;4.40;;;;;;;14.29;80.09;96827.88;5103857;28;20411;-59
2021/07/02 03:39:39;;;;;;;5.30;4.60;;;;;;;14.31;80.06;96830.28;5092075;28;20308;-59
2021/07/02 03:42:05;;;;;;;5.00;4.30;;;;;;;14.20;80.78;96837.28;5111969;28;20188;-59
2021/07/02 03:44:30;;;;;;;5.00;4.50;;;;;;;14.37;79.84;96838.03;5106529;28;20193;-59
2021/07/02 03:46:55;;;;;;;5.47;4.47;;;;;;;14.38;79.83;96842.22;5102886;28;20188;-59
2021/07/02 03:49:21;;;;;;;5.47;4.60;;;;;;;14.37;79.92;96835.38;5099617;28;20537;-58
2021/07/02 03:51:46;;;;;;;6.17;4.50;;;;;;;14.44;79.53;96838.59;5109944;28;20186;-61
2021/07/02 03:54:12;;;;;;;6.23;4.53;;;;;;;14.45;79.67;96847.31;5096932;28;20184;-60
2021/07/02 03:56:39;;;;;;;6.37;4.77;;;;;;;14.42;79.53;96845.19;5105330;28;20185;-61
2021/07/02 03:59:04;;;;;;;7.23;4.60;;;;;;;14.34;80.28;96845.59;5103967;28;20240;-58
2021/07/02 04:01:29;;;;;;;5.10;4.10;;;;;;;14.39;80.16;96849.09;5097875;28;20196;-59
2021/07/02 04:03:55;;;;;;;5.27;4.53;;;;;;;14.25;80.45;96844.44;5104268;28;20658;-59
2021/07/02 04:06:20;;;;;;;5.67;4.20;;;;;;;14.23;80.92;96847.31;5107442;28;20185;-59
2021/07/02 04:08:46;;;;;;;5.20;4.50;;;;;;;14.44;79.67;96835.97;5101895;28;20271;-59
2021/07/02 04:11:11;;;;;;;5.17;4.47;;;;;;;14.48;79.90;96838.91;5104630;28;20195;-60
2021/07/02 04:13:36;;;;;;;6.20;4.70;;;;;;;14.53;79.66;96845.03;5095611;28;20249;-56
2021/07/02 04:16:02;;;;;;;5.00;4.10;;;;;;;14.71;78.65;96845.72;5090981;28;20182;-57
2021/07/02 04:18:27;;;;;;;5.27;4.20;;;;;;;14.84;78.00;96843.44;5093934;28;20195;-59
2021/07/02 04:20:53;;;;;;;5.40;4.40;;;;;;;15.04;77.37;96850.75;5102084;28;20214;-62
2021/07/02 04:23:19;;;;;;;5.90;4.50;;;;;;;15.12;77.42;96844.16;5104070;28;20208;-59
2021/07/02 04:25:44;;;;;;;6.23;4.60;;;;;;;15.19;76.38;96848.19;5097471;28;20181;-60
2021/07/02 04:28:10;;;;;;;7.27;4.77;;;;;;;15.32;75.93;96849.59;5095894;28;20241;-59
2021/07/02 04:30:35;;;;;;;6.33;4.23;;;;;;;15.37;75.79;96853.06;5104666;28;20238;-60
2021/07/02 04:33:01;;;;;;;5.10;4.37;;;;;;;15.46;75.37;96856.03;5102817;28;20267;-59
2021/07/02 04:35:26;;;;;;;6.00;4.23;;;;;;;15.47;75.37;96852.34;5097675;28;20271;-59
2021/07/02 04:37:52;;;;;;;5.00;4.50;;;;;;;15.50;75.58;96861.56;5108445;28;20262;-62
2021/07/02 04:40:17;;;;;;;7.40;4.83;;;;;;;15.58;75.25;96861.94;5094184;28;20176;-59
2021/07/02 04:42:44;;;;;;;4.80;4.23;;;;;;;15.60;74.92;96857.19;5103361;28;20562;-60
2021/07/02 04:45:10;;;;;;;7.60;5.00;;;;;;;15.58;74.73;96859.28;5103572;28;20719;-60
2021/07/02 04:47:36;;;;;;;6.40;4.53;;;;;;;15.65;74.55;96859.06;5096251;28;20271;-59
2021/07/02 04:50:01;;;;;;;6.07;4.93;;;;;;;15.68;74.66;96859.34;5107579;28;20838;-60
2021/07/02 04:52:27;;;;;;;5.70;5.07;;;;;;;15.88;73.92;96856.00;5099793;28;20213;-59
2021/07/02 04:54:52;;;;;;;5.17;4.67;;;;;;;15.91;73.37;96855.47;5100890;28;20271;-62
2021/07/02 04:57:18;;;;;;;5.37;4.70;;;;;;;16.05;73.39;96859.22;5103015;28;20229;-60
2021/07/02 04:59:46;;;;;;;4.43;4.03;;;;;;;16.14;72.79;96860.34;5102794;28;20198;-60
2021/07/02 05:02:11;;;;;;;5.43;4.40;;;;;;;16.26;72.52;96860.09;5095062;28;20270;-60
2021/07/02 05:04:36;;;;;;;5.30;4.80;;;;;;;16.46;71.57;96859.34;5106709;28;20282;-60
2021/07/02 05:07:03;;;;;;;5.47;4.80;;;;;;;16.55;71.83;96857.78;5110683;28;20663;-59
2021/07/02 05:09:28;;;;;;;5.90;4.67;;;;;;;16.66;70.75;96856.78;5103154;28;20691;-60
2021/07/02 05:11:53;;;;;;;4.87;4.37;;;;;;;16.54;71.09;96857.00;5092978;28;20206;-61
2021/07/02 05:14:19;;;;;;;5.40;4.50;;;;;;;16.74;70.94;96864.19;5099254;28;20653;-59
2021/07/02 05:16:44;;;;;;;5.37;4.47;;;;;;;16.85;70.42;96863.13;5107579;28;20633;-59
2021/07/02 05:19:10;;;;;;;5.97;4.80;;;;;;;16.80;70.79;96868.44;5105938;28;20190;-58
2021/07/02 05:21:35;;;;;;;5.47;4.67;;;;;;;16.92;70.06;96866.31;5107224;28;20191;-59
2021/07/02 05:24:01;;;;;;;6.07;4.47;;;;;;;16.90;70.04;96860.50;5089542;28;20204;-59
2021/07/02 05:26:27;;;;;;;5.03;4.53;;;;;;;16.94;69.79;96866.06;5097957;28;20268;-59
2021/07/02 05:28:52;;;;;;;5.23;4.73;;;;;;;16.91;69.40;96871.88;5103187;28;20180;-59
2021/07/02 05:31:18;;;;;;;6.07;4.10;;;;;;;16.84;70.21;96874.78;5107582;28;20198;-60
2021/07/02 05:33:43;;;;;;;5.90;4.40;;;;;;;16.92;69.91;96874.28;5094609;28;20522;-59
2021/07/02 05:36:09;;;;;;;5.67;4.80;;;;;;;17.20;68.60;96872.94;5105594;28;20185;-59
2021/07/02 05:38:35;;;;;;;5.17;4.67;;;;;;;17.23;68.36;96871.59;5098719;28;20234;-60
2021/07/02 05:41:01;;;;;;;5.83;4.23;;;;;;;17.41;67.81;96871.06;5102348;28;20523;-60
2021/07/02 05:43:27;;;;;;;5.70;4.60;;;;;;;17.55;67.39;96869.44;5097012;28;20200;-59
2021/07/02 05:45:52;;;;;;;4.87;4.10;;;;;;;17.48;67.53;96870.78;5091591;28;20535;-61
2021/07/02 05:48:19;;;;;;;4.40;4.00;;;;;;;17.91;65.94;96874.66;5088998;28;20192;-60
2021/07/02 05:50:46;;;;;;;4.57;4.10;;;;;;;18.38;64.80;96871.56;5097553;28;20209;-60
2021/07/02 05:53:16;;;;;;;3.90;3.47;;;;;;;18.27;63.98;96878.78;5098238;28;20216;-60
2021/07/02 05:55:42;;;;;;;4.83;3.97;;;;;;;18.09;65.09;96882.81;5089806;28;20178;-60
2021/07/02 05:58:07;;;;;;;3.63;3.27;;;;;;;18.09;64.98;96879.38;5102783;28;20249;-60
2021/07/02 06:00:33;;;;;;;4.40;3.70;;;;;;;18.14;64.87;96876.69;5104913;28;20565;-60
2021/07/02 06:02:58;;;;;;;5.20;4.10;;;;;;;18.50;64.39;96883.41;5108068;28;20204;-62
2021/07/02 06:05:24;;;;;;;4.73;4.20;;;;;;;18.62;63.67;96885.75;5093451;28;20187;-59
2021/07/02 06:07:55;;;;;;;5.43;3.47;;;;;;;18.88;63.13;96881.88;5091863;28;20188;-59
2021/07/02 06:10:23;;;;;;;4.67;3.70;;;;;;;18.99;62.10;96885.25;5094350;28;20221;-58
2021/07/02 06:12:49;;;;;;;3.47;3.17;;;;;;;19.41;60.90;96879.31;5102475;28;20184;-56
2021/07/02 06:15:17;;;;;;;4.93;3.92;;;;;;;19.70;60.27;96890.75;5107170;28;20308;-60
2021/07/02 06:17:44;;;;;;;3.72;3.42;;;;;;;20.03;59.13;96894.38;5095560;28;20196;-60
2021/07/02 06:20:11;;;;;;;5.25;3.72;;;;;;;19.99;58.97;96897.91;5101368;28;20185;-58
2021/07/02 06:22:37;;;;;;;5.65;3.60;;;;;;;20.17;58.10;96900.59;5089199;28;20180;-60
2021/07/02 06:25:04;;;;;;;3.83;3.25;;;;;;;20.47;57.43;96894.13;5101237;28;20352;-60
2021/07/02 06:27:30;;;;;;;5.47;3.90;;;;;;;20.55;57.18;96898.81;5096291;28;20767;-60
2021/07/02 06:29:55;;;;;;;3.78;3.45;;;;;;;20.15;57.97;96900.09;5100521;28;20263;-62
2021/07/02 06:32:21;;;;;;;3.30;3.00;;;;;;;20.15;57.82;96904.63;5091088;28;20272;-60
2021/07/02 06:34:46;;;;;;;4.13;3.50;;;;;;;20.60;57.05;96912.06;5094627;28;20188;-60
2021/07/02 06:37:12;;;;;;;5.18;3.90;;;;;;;20.27;56.42;96907.69;5092030;28;20176;-59
2021/07/02 06:39:37;;;;;;;4.30;3.67;;;;;;;20.14;57.16;96913.69;5107267;28;20224;-59
2021/07/02 06:42:04;;;;;;;4.50;3.70;;;;;;;19.84;57.95;96907.63;5096039;28;20592;-59
2021/07/02 06:44:29;;;;;;;8.40;4.70;;;;;;;20.23;57.14;96912.75;5110366;28;20294;-58
2021/07/02 06:46:54;;;;;;;13.88;7.38;;;;;;;20.31;57.20;96914.00;5097216;28;20268;-59
2021/07/02 06:49:20;;;;;;;6.53;4.95;;;;;;;20.73;55.95;96910.56;5105164;28;20531;-58
2021/07/02 06:51:45;;;;;;;5.13;4.05;;;;;;;20.91;55.31;96915.09;5100231;28;20251;-59
2021/07/02 06:54:11;;;;;;;5.75;4.10;;;;;;;21.19;54.80;96909.88;5107409;28;20185;-59
2021/07/02 06:56:36;;;;;;;11.48;5.78;;;;;;;21.05;54.11;96907.94;5099782;28;20224;-58
2021/07/02 06:59:02;;;;;;;5.38;3.78;;;;;;;21.22;54.00;96907.44;5103344;28;20233;-60
2021/07/02 07:01:27;;;;;;;6.60;3.63;;;;;;;21.40;53.64;96909.25;5105884;28;20701;-60
2021/07/02 07:03:52;;;;;;;3.78;3.40;;;;;;;21.54;53.54;96914.66;5103426;28;20284;-59
2021/07/02 07:06:18;;;;;;;3.65;3.35;;;;;;;21.57;52.71;96917.50;5104523;28;20184;-60
2021/07/02 07:08:44;;;;;;;3.40;3.10;;;;;;;21.52;52.46;96924.81;5110221;28;20249;-58
2021/07/02 07:11:10;;;;;;;5.60;3.30;;;;;;;21.54;52.29;96925.31;5106445;28;20271;-60
2021/07/02 07:13:41;;;;;;;3.78;3.40;;;;;;;21.06;52.98;96922.88;5099839;28;20189;-60
2021/07/02 07:16:07;;;;;;;27.42;11.32;;;;;;;20.85;53.97;96918.91;5108330;28;20259;-58
2021/07/02 07:18:32;;;;;;;12.68;6.65;;;;;;;20.66;54.26;96920.78;5091414;28;20276;-59
2021/07/02 07:20:57;;;;;;;4.20;3.10;;;;;;;21.06;53.80;96930.06;5096936;28;20259;-62
2021/07/02 07:23:23;;;;;;;5.60;4.07;;;;;;;21.33;52.50;96932.06;5094744;28;20222;-58
2021/07/02 07:25:49;;;;;;;4.03;3.33;;;;;;;21.34;52.40;96926.47;5107524;28;20272;-59
2021/07/02 07:28:14;;;;;;;3.42;3.13;;;;;;;21.37;52.85;96930.41;5095896;28;20238;-60
2021/07/02 07:30:40;;;;;;;4.45;3.85;;;;;;;21.21;53.44;96926.41;5091573;28;20212;-60
2021/07/02 07:33:05;;;;;;;7.93;3.72;;;;;;;21.34;52.79;96929.13;5102421;28;20187;-60
2021/07/02 07:35:35;;;;;;;3.70;3.40;;;;;;;21.43;51.92;96931.91;5096437;28;20188;-59
2021/07/02 07:38:01;;;;;;;4.40;3.60;;;;;;;21.51;51.37;96936.59;5107084;28;20184;-61
2021/07/02 07:40:28;;;;;;;4.55;3.30;;;;;;;21.64;51.15;96930.47;5095277;28;20263;-60
2021/07/02 07:42:54;;;;;;;3.58;3.28;;;;;;;21.77;51.43;96916.38;5107623;28;20241;-59
2021/07/02 07:45:21;;;;;;;3.72;3.25;;;;;;;21.76;50.65;96922.00;5096246;28;20219;-60
2021/07/02 07:47:47;;;;;;;4.07;3.30;;;;;;;21.84;49.04;96916.00;5109424;28;20633;-59
2021/07/02 07:50:16;;;;;;;3.30;3.00;;;;;;;21.73;48.59;96922.59;5095237;28;20234;-59
2021/07/02 07:55:07;;;;;;;4.03;3.13;;;;;;;21.23;50.79;96924.25;5107910;28;20207;-58
2021/07/02 07:57:32;;;;;;;4.03;3.22;;;;;;;20.51;53.30;96929.75;5098770;28;20267;-60
2021/07/02 07:59:58;;;;;;;3.25;2.83;;;;;;;20.26;53.15;96930.84;5112512;28;20183;-60
2021/07/02 08:02:23;;;;;;;4.82;3.20;;;;;;;20.22;52.23;96937.81;5102923;28;20188;-59
2021/07/02 08:04:49;;;;;;;3.42;3.10;;;;;;;19.89;53.06;96933.41;5098376;28;20208;-58
2021/07/02 08:07:14;;;;;;;5.75;3.17;;;;;;;19.66;52.33;96936.81;5096790;28;20656;-57
2021/07/02 08:09:39;;;;;;;3.75;3.00;;;;;;;19.84;52.99;96942.19;5097382;28;20192;-58
2021/07/02 08:12:05;;;;;;;3.42;3.10;;;;;;;20.01;52.06;96941.75;5097414;28;20173;-59
2021/07/02 08:14:31;;;;;;;4.40;2.92;;;;;;;20.00;52.18;96932.22;5098777;28;20199;-60
2021/07/02 08:16:56;;;;;;;3.90;2.50;;;;;;;20.40;51.43;96940.81;5096572;28;20633;-62
2021/07/02 08:19:21;;;;;;;2.90;2.70;;;;;;;20.95;49.19;96944.63;5101409;28;20648;-59
2021/07/02 08:21:47;;;;;;;3.10;2.80;;;;;;;21.23;47.87;96933.03;5100801;28;20671;-58
2021/07/02 08:24:12;;;;;;;3.53;2.83;;;;;;;21.57;47.07;96943.38;5097640;28;20208;-58
2021/07/02 08:26:38;;;;;;;3.58;2.75;;;;;;;21.55;46.93;96935.69;5100442;28;20677;-58
2021/07/02 08:31:47;;;;;;;3.00;2.70;;;;;;;22.19;46.78;96936.69;5108918;28;20651;-60
2021/07/02 08:34:13;;;;;;;3.20;2.90;;;;;;;21.59;48.10;96941.22;5102772;28;20184;-61
2021/07/02 08:36:38;;;;;;;3.53;2.65;;;;;;;21.87;46.20;96924.19;5104373;28;20542;-59
2021/07/02 08:39:04;;;;;;;2.90;2.70;;;;;;;21.72;46.29;96935.16;5105703;28;20315;-59
2021/07/02 08:41:29;;;;;;;3.08;2.80;;;;;;;21.48;47.05;96945.16;5106816;28;20203;-60
2021/07/02 08:43:55;;;;;;;3.78;3.40;;;;;;;22.09;46.40;96934.22;5093303;28;20298;-60
2021/07/02 08:46:21;;;;;;;3.22;2.92;;;;;;;22.19;45.42;96943.91;5102635;28;20187;-59
2021/07/02 08:48:48;;;;;;;3.70;2.72;;;;;;;22.79;45.67;96931.22;5095136;28;20188;-58
2021/07/02 08:51:15;;;;;;;3.00;2.80;;;;;;;22.99;44.42;96938.78;5102791;28;20237;-58
2021/07/02 08:53:42;;;;;;;2.95;2.63;;;;;;;23.49;43.58;96944.03;5108404;28;20214;-59
2021/07/02 08:56:08;;;;;;;2.92;2.70;;;;;;;23.32;43.47;96942.00;5098947;28;20185;-58
2021/07/02 08:58:35;;;;;;;3.08;2.78;;;;;;;23.60;42.92;96938.13;5091809;28;20212;-59
2021/07/02 09:01:06;;;;;;;3.30;3.00;;;;;;;23.88;42.84;96943.31;5057583;28;20616;-60
2021/07/02 09:03:37;;;;;;;3.25;2.95;;;;;;;23.37;43.61;96949.13;5097940;28;20278;-58
2021/07/02 09:06:08;;;;;;;3.10;2.80;;;;;;;23.03;44.17;96952.31;5100158;28;20183;-60
2021/07/02 09:08:34;;;;;;;3.25;2.60;;;;;;;22.77;45.48;96952.88;5099617;28;20176;-60
2021/07/02 09:11:01;;;;;;;5.72;3.35;;;;;;;22.32;45.50;96948.47;5097323;28;20657;-62
2021/07/02 09:13:40;;;;;;;3.95;2.95;;;;;;;22.69;44.47;96952.75;5099347;28;20237;-59
2021/07/02 09:16:24;;;;;;;2.85;2.65;;;;;;;23.02;43.12;96954.19;5084961;28;20188;-59
2021/07/02 09:18:50;;;;;;;3.38;3.08;;;;;;;23.24;42.05;96958.00;5070920;28;20172;-58
2021/07/02 09:21:25;;;;;;;3.05;2.80;;;;;;;23.88;39.81;96960.19;5099274;28;20192;-59
2021/07/02 09:23:51;;;;;;;4.65;2.67;;;;;;;24.49;38.49;96957.75;5103302;28;20627;-58
2021/07/02 09:26:39;;;;;;;3.22;2.92;;;;;;;24.00;39.25;96946.22;5108647;28;20184;-57
2021/07/02 09:29:16;;;;;;;3.00;2.70;;;;;;;23.77;40.25;96945.47;5089273;28;20185;-59
2021/07/02 09:31:41;;;;;;;2.90;2.70;;;;;;;22.86;43.64;96952.16;5105454;28;20195;-59
2021/07/02 09:34:07;;;;;;;2.78;2.50;;;;;;;22.79;44.19;96950.69;5101470;28;20553;-58
2021/07/02 09:36:32;;;;;;;2.70;2.50;;;;;;;22.32;42.81;96943.91;5097330;28;20176;-58
2021/07/02 09:38:58;;;;;;;3.10;2.80;;;;;;;21.41;43.37;96947.41;5101129;28;20219;-61
2021/07/02 09:41:33;;;;;;;2.53;2.33;;;;;;;21.36;43.57;96953.59;5101832;28;20230;-57
2021/07/02 09:44:12;;;;;;;2.80;2.50;;;;;;;21.73;41.22;96959.94;5101621;28;20211;-61
2021/07/02 09:46:37;;;;;;;2.40;2.20;;;;;;;22.22;40.95;96956.69;5100019;28;20184;-58
2021/07/02 09:49:03;;;;;;;3.15;2.85;;;;;;;22.87;39.36;96957.22;5098798;28;20558;-58
2021/07/02 09:51:31;;;;;;;2.22;2.10;;;;;;;23.31;38.29;96955.69;5096249;28;20212;-59
2021/07/02 09:54:06;;;;;;;4.90;2.47;;;;;;;23.55;39.60;96956.19;5098945;28;20655;-61
2021/07/02 09:56:31;;;;;;;3.22;2.92;;;;;;;23.92;38.68;96957.66;5092988;28;20192;-59
2021/07/02 09:58:57;;;;;;;3.25;3.00;;;;;;;23.84;39.85;96958.41;5098490;28;20640;-62
2021/07/02 10:01:27;;;;;;;2.60;2.40;;;;;;;24.24;38.31;96965.38;5097046;28;20244;-59
2021/07/02 10:03:53;;;;;;;2.72;2.50;;;;;;;24.88;36.98;96963.06;5094619;28;20196;-59
2021/07/02 10:06:19;;;;;;;3.75;2.95;;;;;;;24.98;38.96;96967.31;5101123;28;20179;-58
2021/07/02 10:08:44;;;;;;;4.97;3.00;;;;;;;23.88;40.98;96959.38;5096477;28;20188;-57
2021/07/02 10:11:11;;;;;;;4.15;3.10;;;;;;;23.42;43.06;96967.72;5093412;28;20641;-59
2021/07/02 10:13:42;;;;;;;3.38;3.10;;;;;;;23.67;43.66;96963.69;5111823;28;20515;-58
2021/07/02 10:16:09;;;;;;;2.95;2.75;;;;;;;23.71;41.50;96965.44;5103517;28;20173;-57
2021/07/02 10:18:38;;;;;;;3.20;2.92;;;;;;;23.49;42.45;96958.22;5102300;28;20184;-59
2021/07/02 10:21:05;;;;;;;3.58;3.17;;;;;;;22.61;44.59;96962.28;5106492;28;20184;-59
2021/07/02 10:23:36;;;;;;;4.47;3.30;;;;;;;22.21;45.77;96960.44;5096630;28;20191;-56
2021/07/02 10:26:05;;;;;;;3.25;2.92;;;;;;;22.18;46.12;96958.38;5104828;28;20253;-59
2021/07/02 10:28:31;;;;;;;3.70;3.40;;;;;;;22.21;45.37;96963.91;5097230;28;20176;-59
2021/07/02 10:30:57;;;;;;;4.65;3.15;;;;;;;22.85;43.60;96963.97;5102800;28;20194;-61
2021/07/02 10:33:25;;;;;;;3.58;3.17;;;;;;;22.84;43.83;96968.53;5098748;28;20187;-58
2021/07/02 10:36:03;;;;;;;4.70;3.38;;;;;;;21.99;45.01;96969.13;5113927;28;20171;-57
2021/07/02 10:38:35;;;;;;;4.25;3.45;;;;;;;21.63;46.24;96971.56;5102593;28;20252;-57
2021/07/02 10:41:14;;;;;;;5.25;3.40;;;;;;;21.38;45.71;96959.44;5112257;28;20241;-60
2021/07/02 10:44:11;;;;;;;4.00;3.60;;;;;;;21.20;46.56;96978.13;5107298;28;20269;-57
2021/07/02 10:46:40;;;;;;;4.05;3.10;;;;;;;20.67;46.48;96973.00;5080701;28;20204;-59
2021/07/02 10:49:11;;;;;;;3.40;2.97;;;;;;;20.85;46.80;96966.84;5091836;28;20188;-57
2021/07/02 10:51:42;;;;;;;3.88;2.90;;;;;;;21.12;43.39;96960.91;5109032;28;20180;-59
2021/07/02 10:54:13;;;;;;;3.08;2.85;;;;;;;21.12;45.64;96961.66;5096660;28;20204;-58
2021/07/02 10:56:58;;;;;;;2.78;2.58;;;;;;;21.20;45.36;96970.94;5107467;28;20235;-57
2021/07/02 10:59:41;;;;;;;3.70;2.58;;;;;;;22.02;42.92;96955.16;5101864;28;20647;-60
2021/07/02 11:02:11;;;;;;;3.72;3.40;;;;;;;22.31;43.31;96960.22;5112314;28;20625;-57
2021/07/02 11:04:56;;;;;;;3.17;2.88;;;;;;;21.76;45.13;96965.47;5114208;28;20231;-60
2021/07/02 11:07:29;;;;;;;3.40;3.03;;;;;;;21.71;44.90;96960.25;5080728;28;20237;-57
2021/07/02 11:10:03;;;;;;;3.70;3.40;;;;;;;21.78;44.83;96962.53;5111664;28;20176;-58
2021/07/02 11:12:32;;;;;;;12.05;3.38;;;;;;;22.07;42.97;96952.41;5099019;28;20181;-58
2021/07/02 11:14:58;;;;;;;3.35;2.80;;;;;;;22.37;42.34;96956.38;5110324;28;20192;-61
2021/07/02 11:17:31;;;;;;;3.65;3.30;;;;;;;22.50;42.91;96960.13;5093522;28;20203;-60
2021/07/02 11:22:34;;;;;;;4.00;3.20;;;;;;;22.55;42.23;96955.47;5095790;28;20195;-59
2021/07/02 11:25:28;;;;;;;3.50;3.20;;;;;;;21.83;43.91;96959.78;5100688;28;20200;-61
2021/07/02 11:27:55;;;;;;;4.15;3.17;;;;;;;21.61;44.22;96959.63;5102051;28;20225;-59
2021/07/02 11:30:21;;;;;;;4.05;3.22;;;;;;;21.75;44.25;96955.88;5102971;28;20188;-57
2021/07/02 11:32:51;;;;;;;3.20;2.92;;;;;;;21.51;44.93;96963.25;5110178;28;20187;-57
2021/07/02 11:35:23;;;;;;;3.50;3.20;;;;;;;21.03;45.31;96962.63;5098722;28;20195;-58
2021/07/02 11:38:10;;;;;;;3.67;2.85;;;;;;;21.36;45.20;96956.28;5103054;28;20199;-56
2021/07/02 11:40:53;;;;;;;3.10;2.90;;;;;;;21.46;43.92;96968.66;5103788;28;20180;-54